sensor_id;sensor_type;location;lat;lon;timestamp;P1;durP1;ratioP1;P2;durP2;ratioP2
76826;SDS011;65788;52.284;20.890;2023-07-13T00:01:49;11.50;;;7.70;;
76826;SDS011;65788;52.284;20.890;2023-07-13T00:04:19;10.70;;;7.70;;
76826;SDS011;65788;52.284;20.890;2023-07-13T00:06:47;9.80;;;7.20;;
76826;SDS011;65788;52.284;20.890;2023-07-13T00:09:14;8.70;;;7.40;;
76826;SDS011;65788;52.284;20.890;2023-07-13T00:11:43;13.40;;;7.50;;
76826;SDS011;65788;52.284;20.890;2023-07-13T00:14:10;12.70;;;7.70;;
76826;SDS011;65788;52.284;20.890;2023-07-13T00:16:38;10.00;;;6.80;;
76826;SDS011;65788;52.284;20.890;2023-07-13T00:19:10;9.00;;;7.00;;
76826;SDS011;65788;52.284;20.890;2023-07-13T00:21:38;11.10;;;7.50;;
76826;SDS011;65788;52.284;20.890;2023-07-13T00:24:06;10.40;;;7.50;;
76826;SDS011;65788;52.284;20.890;2023-07-13T00:26:39;10.20;;;7.10;;
76826;SDS011;65788;52.284;20.890;2023-07-13T00:29:07;10.50;;;6.80;;
76826;SDS011;65788;52.284;20.890;2023-07-13T00:31:35;10.00;;;6.90;;
76826;SDS011;65788;52.284;20.890;2023-07-13T00:34:02;8.80;;;6.70;;
76826;SDS011;65788;52.284;20.890;2023-07-13T00:36:30;9.80;;;7.20;;
76826;SDS011;65788;52.284;20.890;2023-07-13T00:38:57;9.70;;;7.00;;
76826;SDS011;65788;52.284;20.890;2023-07-13T00:41:24;9.90;;;7.10;;
76826;SDS011;65788;52.284;20.890;2023-07-13T00:43:51;8.20;;;6.90;;
76826;SDS011;65788;52.284;20.890;2023-07-13T00:46:22;8.70;;;7.10;;
76826;SDS011;65788;52.284;20.890;2023-07-13T00:48:52;8.10;;;6.50;;
76826;SDS011;65788;52.284;20.890;2023-07-13T00:51:23;10.70;;;7.00;;
76826;SDS011;65788;52.284;20.890;2023-07-13T00:53:54;10.80;;;7.50;;
76826;SDS011;65788;52.284;20.890;2023-07-13T00:56:25;8.00;;;6.80;;
76826;SDS011;65788;52.284;20.890;2023-07-13T00:58:52;9.10;;;6.80;;
76826;SDS011;65788;52.284;20.890;2023-07-13T01:01:20;10.50;;;7.50;;
76826;SDS011;65788;52.284;20.890;2023-07-13T01:03:46;8.90;;;6.70;;
76826;SDS011;65788;52.284;20.890;2023-07-13T01:06:13;10.00;;;7.10;;
76826;SDS011;65788;52.284;20.890;2023-07-13T01:08:40;9.70;;;7.50;;
76826;SDS011;65788;52.284;20.890;2023-07-13T01:11:07;10.20;;;7.40;;
76826;SDS011;65788;52.284;20.890;2023-07-13T01:13:34;12.50;;;7.10;;
76826;SDS011;65788;52.284;20.890;2023-07-13T01:16:03;11.40;;;6.60;;
76826;SDS011;65788;52.284;20.890;2023-07-13T01:18:37;9.80;;;6.40;;
76826;SDS011;65788;52.284;20.890;2023-07-13T01:21:05;8.20;;;6.60;;
76826;SDS011;65788;52.284;20.890;2023-07-13T01:23:32;11.40;;;7.60;;
76826;SDS011;65788;52.284;20.890;2023-07-13T01:25:59;8.40;;;6.90;;
76826;SDS011;65788;52.284;20.890;2023-07-13T01:28:27;9.90;;;7.30;;
76826;SDS011;65788;52.284;20.890;2023-07-13T01:30:55;12.20;;;7.80;;
76826;SDS011;65788;52.284;20.890;2023-07-13T01:33:24;10.20;;;6.90;;
76826;SDS011;65788;52.284;20.890;2023-07-13T01:35:51;9.50;;;7.00;;
76826;SDS011;65788;52.284;20.890;2023-07-13T01:38:19;9.00;;;6.90;;
76826;SDS011;65788;52.284;20.890;2023-07-13T01:40:48;10.80;;;7.30;;
76826;SDS011;65788;52.284;20.890;2023-07-13T01:43:14;8.70;;;6.90;;
76826;SDS011;65788;52.284;20.890;2023-07-13T01:45:41;10.70;;;7.00;;
76826;SDS011;65788;52.284;20.890;2023-07-13T01:48:10;7.40;;;6.10;;
76826;SDS011;65788;52.284;20.890;2023-07-13T01:50:37;8.20;;;6.90;;
76826;SDS011;65788;52.284;20.890;2023-07-13T01:53:04;10.70;;;7.20;;
76826;SDS011;65788;52.284;20.890;2023-07-13T01:55:31;8.40;;;7.00;;
76826;SDS011;65788;52.284;20.890;2023-07-13T01:57:59;8.70;;;7.20;;
76826;SDS011;65788;52.284;20.890;2023-07-13T02:00:26;9.70;;;7.40;;
76826;SDS011;65788;52.284;20.890;2023-07-13T02:02:52;9.50;;;7.20;;
76826;SDS011;65788;52.284;20.890;2023-07-13T02:05:19;11.00;;;7.70;;
76826;SDS011;65788;52.284;20.890;2023-07-13T02:07:46;7.70;;;7.00;;
76826;SDS011;65788;52.284;20.890;2023-07-13T02:10:13;8.90;;;7.20;;
76826;SDS011;65788;52.284;20.890;2023-07-13T02:12:40;9.20;;;7.30;;
76826;SDS011;65788;52.284;20.890;2023-07-13T02:15:08;9.00;;;6.90;;
76826;SDS011;65788;52.284;20.890;2023-07-13T02:17:36;9.20;;;7.40;;
76826;SDS011;65788;52.284;20.890;2023-07-13T02:20:04;10.90;;;7.20;;
76826;SDS011;65788;52.284;20.890;2023-07-13T02:22:31;9.40;;;6.60;;
76826;SDS011;65788;52.284;20.890;2023-07-13T02:25:01;8.30;;;7.00;;
76826;SDS011;65788;52.284;20.890;2023-07-13T02:27:28;8.10;;;6.90;;
76826;SDS011;65788;52.284;20.890;2023-07-13T02:29:55;8.30;;;7.00;;
76826;SDS011;65788;52.284;20.890;2023-07-13T02:32:21;9.20;;;7.00;;
76826;SDS011;65788;52.284;20.890;2023-07-13T02:34:51;9.00;;;7.30;;
76826;SDS011;65788;52.284;20.890;2023-07-13T02:37:19;10.70;;;7.50;;
76826;SDS011;65788;52.284;20.890;2023-07-13T02:39:46;11.40;;;7.50;;
76826;SDS011;65788;52.284;20.890;2023-07-13T02:42:14;9.70;;;6.90;;
76826;SDS011;65788;52.284;20.890;2023-07-13T02:44:41;9.10;;;6.90;;
76826;SDS011;65788;52.284;20.890;2023-07-13T02:47:08;8.00;;;6.60;;
76826;SDS011;65788;52.284;20.890;2023-07-13T02:49:34;9.30;;;7.30;;
76826;SDS011;65788;52.284;20.890;2023-07-13T02:52:02;10.50;;;7.50;;
76826;SDS011;65788;52.284;20.890;2023-07-13T02:54:30;10.60;;;7.40;;
76826;SDS011;65788;52.284;20.890;2023-07-13T02:56:57;7.10;;;6.40;;
76826;SDS011;65788;52.284;20.890;2023-07-13T02:59:24;10.10;;;7.00;;
76826;SDS011;65788;52.284;20.890;2023-07-13T03:01:50;7.90;;;7.10;;
76826;SDS011;65788;52.284;20.890;2023-07-13T03:04:18;10.10;;;7.70;;
76826;SDS011;65788;52.284;20.890;2023-07-13T03:06:46;9.60;;;7.10;;
76826;SDS011;65788;52.284;20.890;2023-07-13T03:09:13;9.70;;;7.30;;
76826;SDS011;65788;52.284;20.890;2023-07-13T03:11:40;10.60;;;7.90;;
76826;SDS011;65788;52.284;20.890;2023-07-13T03:14:07;9.30;;;7.10;;
76826;SDS011;65788;52.284;20.890;2023-07-13T03:16:35;9.50;;;7.00;;
76826;SDS011;65788;52.284;20.890;2023-07-13T03:19:02;10.60;;;7.00;;
76826;SDS011;65788;52.284;20.890;2023-07-13T03:21:29;8.30;;;7.30;;
76826;SDS011;65788;52.284;20.890;2023-07-13T03:23:56;7.70;;;6.40;;
76826;SDS011;65788;52.284;20.890;2023-07-13T03:26:23;9.80;;;7.80;;
76826;SDS011;65788;52.284;20.890;2023-07-13T03:28:50;8.40;;;7.10;;
76826;SDS011;65788;52.284;20.890;2023-07-13T03:31:19;8.70;;;6.70;;
76826;SDS011;65788;52.284;20.890;2023-07-13T03:33:47;10.70;;;7.10;;
76826;SDS011;65788;52.284;20.890;2023-07-13T03:36:15;9.20;;;6.70;;
76826;SDS011;65788;52.284;20.890;2023-07-13T03:38:48;8.30;;;6.50;;
76826;SDS011;65788;52.284;20.890;2023-07-13T03:41:16;8.20;;;6.30;;
76826;SDS011;65788;52.284;20.890;2023-07-13T03:43:43;7.80;;;6.20;;
76826;SDS011;65788;52.284;20.890;2023-07-13T03:46:10;8.30;;;6.30;;
76826;SDS011;65788;52.284;20.890;2023-07-13T03:48:37;9.20;;;6.20;;
76826;SDS011;65788;52.284;20.890;2023-07-13T03:51:06;9.40;;;6.40;;
76826;SDS011;65788;52.284;20.890;2023-07-13T03:53:35;8.50;;;6.60;;
76826;SDS011;65788;52.284;20.890;2023-07-13T03:56:06;9.70;;;6.60;;
76826;SDS011;65788;52.284;20.890;2023-07-13T03:58:34;8.20;;;6.40;;
76826;SDS011;65788;52.284;20.890;2023-07-13T04:01:02;9.70;;;7.00;;
76826;SDS011;65788;52.284;20.890;2023-07-13T04:03:32;7.10;;;6.10;;
76826;SDS011;65788;52.284;20.890;2023-07-13T04:06:00;9.00;;;6.40;;
76826;SDS011;65788;52.284;20.890;2023-07-13T04:08:29;8.60;;;6.70;;
76826;SDS011;65788;52.284;20.890;2023-07-13T04:10:57;8.70;;;6.20;;
76826;SDS011;65788;52.284;20.890;2023-07-13T04:13:24;7.90;;;5.90;;
76826;SDS011;65788;52.284;20.890;2023-07-13T04:15:52;8.90;;;6.20;;
76826;SDS011;65788;52.284;20.890;2023-07-13T04:18:20;8.20;;;6.60;;
76826;SDS011;65788;52.284;20.890;2023-07-13T04:20:47;7.40;;;6.50;;
76826;SDS011;65788;52.284;20.890;2023-07-13T04:23:16;8.80;;;6.50;;
76826;SDS011;65788;52.284;20.890;2023-07-13T04:25:47;9.10;;;6.60;;
76826;SDS011;65788;52.284;20.890;2023-07-13T04:28:15;12.30;;;7.70;;
76826;SDS011;65788;52.284;20.890;2023-07-13T04:30:44;9.10;;;6.10;;
76826;SDS011;65788;52.284;20.890;2023-07-13T04:33:11;9.00;;;6.40;;
76826;SDS011;65788;52.284;20.890;2023-07-13T04:35:38;9.50;;;6.80;;
76826;SDS011;65788;52.284;20.890;2023-07-13T04:38:05;8.90;;;6.60;;
76826;SDS011;65788;52.284;20.890;2023-07-13T04:40:32;8.50;;;6.80;;
76826;SDS011;65788;52.284;20.890;2023-07-13T04:42:59;8.50;;;6.70;;
76826;SDS011;65788;52.284;20.890;2023-07-13T04:45:26;9.00;;;7.10;;
76826;SDS011;65788;52.284;20.890;2023-07-13T04:47:52;9.80;;;6.30;;
76826;SDS011;65788;52.284;20.890;2023-07-13T04:50:22;10.00;;;7.40;;
76826;SDS011;65788;52.284;20.890;2023-07-13T04:52:50;8.90;;;6.60;;
76826;SDS011;65788;52.284;20.890;2023-07-13T04:55:17;8.50;;;6.70;;
76826;SDS011;65788;52.284;20.890;2023-07-13T04:57:45;8.60;;;7.00;;
76826;SDS011;65788;52.284;20.890;2023-07-13T05:00:13;8.90;;;6.80;;
76826;SDS011;65788;52.284;20.890;2023-07-13T05:05:10;10.20;;;7.50;;
76826;SDS011;65788;52.284;20.890;2023-07-13T05:07:36;7.40;;;6.30;;
76826;SDS011;65788;52.284;20.890;2023-07-13T05:10:03;9.60;;;7.40;;
76826;SDS011;65788;52.284;20.890;2023-07-13T05:12:30;9.50;;;7.80;;
76826;SDS011;65788;52.284;20.890;2023-07-13T05:14:57;8.10;;;7.20;;
76826;SDS011;65788;52.284;20.890;2023-07-13T05:17:24;10.60;;;7.10;;
76826;SDS011;65788;52.284;20.890;2023-07-13T05:19:50;9.80;;;6.80;;
76826;SDS011;65788;52.284;20.890;2023-07-13T05:22:17;8.60;;;6.20;;
76826;SDS011;65788;52.284;20.890;2023-07-13T05:24:44;10.00;;;7.30;;
76826;SDS011;65788;52.284;20.890;2023-07-13T05:27:11;9.70;;;6.80;;
76826;SDS011;65788;52.284;20.890;2023-07-13T05:29:37;8.30;;;6.90;;
76826;SDS011;65788;52.284;20.890;2023-07-13T05:32:04;9.20;;;7.40;;
76826;SDS011;65788;52.284;20.890;2023-07-13T05:34:32;10.70;;;8.00;;
76826;SDS011;65788;52.284;20.890;2023-07-13T05:36:59;7.60;;;6.70;;
76826;SDS011;65788;52.284;20.890;2023-07-13T05:39:25;9.50;;;7.00;;
76826;SDS011;65788;52.284;20.890;2023-07-13T05:41:54;9.50;;;7.50;;
76826;SDS011;65788;52.284;20.890;2023-07-13T05:44:21;9.30;;;7.50;;
76826;SDS011;65788;52.284;20.890;2023-07-13T05:46:47;8.10;;;7.10;;
76826;SDS011;65788;52.284;20.890;2023-07-13T05:49:14;9.20;;;6.90;;
76826;SDS011;65788;52.284;20.890;2023-07-13T05:51:41;9.80;;;7.90;;
76826;SDS011;65788;52.284;20.890;2023-07-13T05:54:07;9.70;;;7.90;;
76826;SDS011;65788;52.284;20.890;2023-07-13T05:56:34;9.60;;;7.80;;
76826;SDS011;65788;52.284;20.890;2023-07-13T05:59:00;12.10;;;7.70;;
76826;SDS011;65788;52.284;20.890;2023-07-13T06:01:29;8.90;;;7.40;;
76826;SDS011;65788;52.284;20.890;2023-07-13T06:03:56;11.50;;;7.90;;
76826;SDS011;65788;52.284;20.890;2023-07-13T06:06:24;12.20;;;8.20;;
76826;SDS011;65788;52.284;20.890;2023-07-13T06:08:50;9.70;;;7.20;;
76826;SDS011;65788;52.284;20.890;2023-07-13T06:11:18;10.20;;;7.90;;
76826;SDS011;65788;52.284;20.890;2023-07-13T06:13:48;11.30;;;7.80;;
76826;SDS011;65788;52.284;20.890;2023-07-13T06:16:16;11.00;;;8.20;;
76826;SDS011;65788;52.284;20.890;2023-07-13T06:18:43;10.20;;;8.60;;
76826;SDS011;65788;52.284;20.890;2023-07-13T06:21:12;11.00;;;8.50;;
76826;SDS011;65788;52.284;20.890;2023-07-13T06:23:43;12.10;;;8.40;;
76826;SDS011;65788;52.284;20.890;2023-07-13T06:26:11;11.00;;;8.40;;
76826;SDS011;65788;52.284;20.890;2023-07-13T06:28:38;11.10;;;9.00;;
76826;SDS011;65788;52.284;20.890;2023-07-13T06:31:07;12.20;;;8.50;;
76826;SDS011;65788;52.284;20.890;2023-07-13T06:33:35;12.00;;;9.20;;
76826;SDS011;65788;52.284;20.890;2023-07-13T06:36:02;14.20;;;9.50;;
76826;SDS011;65788;52.284;20.890;2023-07-13T06:38:30;13.10;;;9.20;;
76826;SDS011;65788;52.284;20.890;2023-07-13T06:40:57;13.30;;;10.00;;
76826;SDS011;65788;52.284;20.890;2023-07-13T06:43:24;13.50;;;9.80;;
76826;SDS011;65788;52.284;20.890;2023-07-13T06:45:54;14.40;;;10.50;;
76826;SDS011;65788;52.284;20.890;2023-07-13T06:48:22;17.10;;;10.80;;
76826;SDS011;65788;52.284;20.890;2023-07-13T06:50:49;14.60;;;9.30;;
76826;SDS011;65788;52.284;20.890;2023-07-13T06:53:18;13.00;;;9.30;;
76826;SDS011;65788;52.284;20.890;2023-07-13T06:55:46;21.10;;;11.20;;
76826;SDS011;65788;52.284;20.890;2023-07-13T06:58:15;15.30;;;10.50;;
76826;SDS011;65788;52.284;20.890;2023-07-13T07:00:43;19.30;;;11.60;;
76826;SDS011;65788;52.284;20.890;2023-07-13T07:03:10;20.60;;;10.60;;
76826;SDS011;65788;52.284;20.890;2023-07-13T07:05:37;18.10;;;10.40;;
76826;SDS011;65788;52.284;20.890;2023-07-13T07:08:04;16.00;;;10.00;;
76826;SDS011;65788;52.284;20.890;2023-07-13T07:10:31;14.00;;;9.50;;
76826;SDS011;65788;52.284;20.890;2023-07-13T07:12:59;15.40;;;9.20;;
76826;SDS011;65788;52.284;20.890;2023-07-13T07:15:27;12.60;;;8.80;;
76826;SDS011;65788;52.284;20.890;2023-07-13T07:17:54;15.50;;;8.80;;
76826;SDS011;65788;52.284;20.890;2023-07-13T07:20:21;12.10;;;8.40;;
76826;SDS011;65788;52.284;20.890;2023-07-13T07:22:48;10.70;;;8.10;;
76826;SDS011;65788;52.284;20.890;2023-07-13T07:25:15;11.30;;;8.40;;
76826;SDS011;65788;52.284;20.890;2023-07-13T07:27:43;15.60;;;10.60;;
76826;SDS011;65788;52.284;20.890;2023-07-13T07:30:11;13.60;;;8.60;;
76826;SDS011;65788;52.284;20.890;2023-07-13T07:32:38;13.60;;;8.40;;
76826;SDS011;65788;52.284;20.890;2023-07-13T07:35:05;11.50;;;8.40;;
76826;SDS011;65788;52.284;20.890;2023-07-13T07:37:33;15.80;;;8.20;;
76826;SDS011;65788;52.284;20.890;2023-07-13T07:39:59;12.70;;;8.50;;
76826;SDS011;65788;52.284;20.890;2023-07-13T07:42:27;12.60;;;8.40;;
76826;SDS011;65788;52.284;20.890;2023-07-13T07:44:53;26.30;;;12.30;;
76826;SDS011;65788;52.284;20.890;2023-07-13T07:47:20;23.80;;;11.70;;
76826;SDS011;65788;52.284;20.890;2023-07-13T07:49:47;30.20;;;11.20;;
76826;SDS011;65788;52.284;20.890;2023-07-13T07:52:14;16.90;;;9.80;;
76826;SDS011;65788;52.284;20.890;2023-07-13T07:54:41;17.30;;;9.30;;
76826;SDS011;65788;52.284;20.890;2023-07-13T07:57:08;16.30;;;7.80;;
76826;SDS011;65788;52.284;20.890;2023-07-13T07:59:36;16.80;;;9.10;;
76826;SDS011;65788;52.284;20.890;2023-07-13T08:02:04;14.50;;;8.80;;
76826;SDS011;65788;52.284;20.890;2023-07-13T08:04:31;20.60;;;10.20;;
76826;SDS011;65788;52.284;20.890;2023-07-13T08:06:58;16.90;;;9.20;;
76826;SDS011;65788;52.284;20.890;2023-07-13T08:09:24;16.10;;;7.60;;
76826;SDS011;65788;52.284;20.890;2023-07-13T08:11:51;13.30;;;7.20;;
76826;SDS011;65788;52.284;20.890;2023-07-13T08:14:18;12.10;;;7.70;;
76826;SDS011;65788;52.284;20.890;2023-07-13T08:16:45;13.70;;;7.20;;
76826;SDS011;65788;52.284;20.890;2023-07-13T08:19:13;13.30;;;7.10;;
76826;SDS011;65788;52.284;20.890;2023-07-13T08:21:40;11.90;;;6.20;;
76826;SDS011;65788;52.284;20.890;2023-07-13T08:24:09;11.60;;;7.20;;
76826;SDS011;65788;52.284;20.890;2023-07-13T08:26:36;11.50;;;6.80;;
76826;SDS011;65788;52.284;20.890;2023-07-13T08:29:03;10.20;;;6.10;;
76826;SDS011;65788;52.284;20.890;2023-07-13T08:31:30;8.40;;;5.90;;
76826;SDS011;65788;52.284;20.890;2023-07-13T08:33:56;10.90;;;6.40;;
76826;SDS011;65788;52.284;20.890;2023-07-13T08:36:24;8.90;;;6.00;;
76826;SDS011;65788;52.284;20.890;2023-07-13T08:38:52;10.20;;;6.00;;
76826;SDS011;65788;52.284;20.890;2023-07-13T08:41:19;7.70;;;5.20;;
76826;SDS011;65788;52.284;20.890;2023-07-13T08:43:51;9.50;;;5.50;;
76826;SDS011;65788;52.284;20.890;2023-07-13T08:46:35;10.00;;;5.70;;
76826;SDS011;65788;52.284;20.890;2023-07-13T08:49:05;9.70;;;5.40;;
76826;SDS011;65788;52.284;20.890;2023-07-13T08:51:40;7.40;;;5.20;;
76826;SDS011;65788;52.284;20.890;2023-07-13T08:56:44;9.70;;;5.90;;
76826;SDS011;65788;52.284;20.890;2023-07-13T08:59:15;10.70;;;5.50;;
76826;SDS011;65788;52.284;20.890;2023-07-13T09:05:17;7.50;;;5.50;;
76826;SDS011;65788;52.284;20.890;2023-07-13T09:15:43;6.90;;;4.80;;
76826;SDS011;65788;52.284;20.890;2023-07-13T09:18:17;7.10;;;5.30;;
76826;SDS011;65788;52.284;20.890;2023-07-13T09:20:49;6.50;;;5.50;;
76826;SDS011;65788;52.284;20.890;2023-07-13T09:23:22;8.10;;;5.30;;
76826;SDS011;65788;52.284;20.890;2023-07-13T09:25:54;7.10;;;5.30;;
76826;SDS011;65788;52.284;20.890;2023-07-13T09:28:30;9.20;;;5.00;;
76826;SDS011;65788;52.284;20.890;2023-07-13T09:31:05;10.90;;;5.30;;
76826;SDS011;65788;52.284;20.890;2023-07-13T09:33:41;9.20;;;4.70;;
76826;SDS011;65788;52.284;20.890;2023-07-13T09:36:30;9.70;;;4.50;;
76826;SDS011;65788;52.284;20.890;2023-07-13T09:39:13;11.60;;;4.20;;
76826;SDS011;65788;52.284;20.890;2023-07-13T09:44:31;8.10;;;4.00;;
76826;SDS011;65788;52.284;20.890;2023-07-13T09:47:02;9.10;;;3.70;;
76826;SDS011;65788;52.284;20.890;2023-07-13T09:49:38;5.80;;;3.90;;
76826;SDS011;65788;52.284;20.890;2023-07-13T09:52:06;8.00;;;3.80;;
76826;SDS011;65788;52.284;20.890;2023-07-13T09:54:37;8.30;;;3.70;;
76826;SDS011;65788;52.284;20.890;2023-07-13T09:57:15;8.40;;;4.10;;
76826;SDS011;65788;52.284;20.890;2023-07-13T09:59:45;10.70;;;3.80;;
76826;SDS011;65788;52.284;20.890;2023-07-13T10:02:32;7.50;;;3.50;;
76826;SDS011;65788;52.284;20.890;2023-07-13T10:05:06;9.70;;;3.70;;
76826;SDS011;65788;52.284;20.890;2023-07-13T10:07:38;11.30;;;4.00;;
76826;SDS011;65788;52.284;20.890;2023-07-13T10:10:16;10.40;;;4.10;;
76826;SDS011;65788;52.284;20.890;2023-07-13T10:12:46;9.70;;;4.00;;
76826;SDS011;65788;52.284;20.890;2023-07-13T10:15:18;9.20;;;4.10;;
76826;SDS011;65788;52.284;20.890;2023-07-13T10:17:49;6.90;;;4.10;;
76826;SDS011;65788;52.284;20.890;2023-07-13T10:20:17;9.80;;;4.10;;
76826;SDS011;65788;52.284;20.890;2023-07-13T10:25:35;5.00;;;3.80;;
76826;SDS011;65788;52.284;20.890;2023-07-13T10:30:57;9.70;;;4.00;;
76826;SDS011;65788;52.284;20.890;2023-07-13T10:33:26;6.20;;;4.40;;
76826;SDS011;65788;52.284;20.890;2023-07-13T10:36:00;6.10;;;4.20;;
76826;SDS011;65788;52.284;20.890;2023-07-13T10:38:38;7.70;;;4.00;;
76826;SDS011;65788;52.284;20.890;2023-07-13T10:43:39;6.40;;;4.10;;
76826;SDS011;65788;52.284;20.890;2023-07-13T10:46:11;7.00;;;3.90;;
76826;SDS011;65788;52.284;20.890;2023-07-13T10:48:42;6.00;;;3.70;;
76826;SDS011;65788;52.284;20.890;2023-07-13T10:51:13;8.80;;;4.00;;
76826;SDS011;65788;52.284;20.890;2023-07-13T10:53:41;8.10;;;4.00;;
76826;SDS011;65788;52.284;20.890;2023-07-13T11:01:38;8.60;;;4.60;;
76826;SDS011;65788;52.284;20.890;2023-07-13T11:06:38;9.00;;;4.10;;
76826;SDS011;65788;52.284;20.890;2023-07-13T11:12:08;8.80;;;4.30;;
76826;SDS011;65788;52.284;20.890;2023-07-13T11:20:42;6.30;;;3.90;;
76826;SDS011;65788;52.284;20.890;2023-07-13T11:27:49;8.00;;;4.10;;
76826;SDS011;65788;52.284;20.890;2023-07-13T11:30:23;8.10;;;3.90;;
76826;SDS011;65788;52.284;20.890;2023-07-13T11:33:07;8.90;;;4.60;;
76826;SDS011;65788;52.284;20.890;2023-07-13T11:35:47;8.70;;;4.20;;
76826;SDS011;65788;52.284;20.890;2023-07-13T11:38:22;8.00;;;3.90;;
76826;SDS011;65788;52.284;20.890;2023-07-13T11:40:56;11.50;;;4.30;;
76826;SDS011;65788;52.284;20.890;2023-07-13T11:43:30;7.90;;;4.40;;
76826;SDS011;65788;52.284;20.890;2023-07-13T11:46:15;7.80;;;3.90;;
76826;SDS011;65788;52.284;20.890;2023-07-13T11:48:53;10.00;;;4.20;;
76826;SDS011;65788;52.284;20.890;2023-07-13T11:51:22;8.20;;;4.30;;
76826;SDS011;65788;52.284;20.890;2023-07-13T11:53:53;9.20;;;3.80;;
76826;SDS011;65788;52.284;20.890;2023-07-13T11:56:22;6.60;;;4.10;;
76826;SDS011;65788;52.284;20.890;2023-07-13T11:58:51;7.20;;;4.20;;
76826;SDS011;65788;52.284;20.890;2023-07-13T12:01:21;7.40;;;4.20;;
76826;SDS011;65788;52.284;20.890;2023-07-13T12:03:52;7.80;;;4.30;;
76826;SDS011;65788;52.284;20.890;2023-07-13T12:06:25;8.90;;;4.40;;
76826;SDS011;65788;52.284;20.890;2023-07-13T12:09:13;9.00;;;4.50;;
76826;SDS011;65788;52.284;20.890;2023-07-13T12:11:42;7.70;;;4.30;;
76826;SDS011;65788;52.284;20.890;2023-07-13T12:14:16;8.90;;;4.50;;
76826;SDS011;65788;52.284;20.890;2023-07-13T12:16:44;6.60;;;4.00;;
76826;SDS011;65788;52.284;20.890;2023-07-13T12:19:23;6.40;;;4.50;;
76826;SDS011;65788;52.284;20.890;2023-07-13T12:21:56;8.40;;;4.00;;
76826;SDS011;65788;52.284;20.890;2023-07-13T12:24:26;5.90;;;3.60;;
76826;SDS011;65788;52.284;20.890;2023-07-13T12:26:58;8.30;;;3.80;;
76826;SDS011;65788;52.284;20.890;2023-07-13T12:29:31;4.90;;;4.00;;
76826;SDS011;65788;52.284;20.890;2023-07-13T12:31:59;7.50;;;4.30;;
76826;SDS011;65788;52.284;20.890;2023-07-13T12:34:26;9.10;;;4.60;;
76826;SDS011;65788;52.284;20.890;2023-07-13T12:37:00;8.40;;;4.40;;
76826;SDS011;65788;52.284;20.890;2023-07-13T12:42:14;9.30;;;4.30;;
76826;SDS011;65788;52.284;20.890;2023-07-13T12:44:48;8.00;;;4.50;;
76826;SDS011;65788;52.284;20.890;2023-07-13T12:47:15;5.10;;;3.70;;
76826;SDS011;65788;52.284;20.890;2023-07-13T12:49:47;7.70;;;4.50;;
76826;SDS011;65788;52.284;20.890;2023-07-13T12:52:19;6.20;;;4.50;;
76826;SDS011;65788;52.284;20.890;2023-07-13T12:54:59;7.60;;;4.30;;
76826;SDS011;65788;52.284;20.890;2023-07-13T12:57:32;5.80;;;4.10;;
76826;SDS011;65788;52.284;20.890;2023-07-13T13:00:14;6.40;;;4.30;;
76826;SDS011;65788;52.284;20.890;2023-07-13T13:02:51;8.60;;;4.30;;
76826;SDS011;65788;52.284;20.890;2023-07-13T13:05:20;10.20;;;4.20;;
76826;SDS011;65788;52.284;20.890;2023-07-13T13:07:50;8.40;;;4.60;;
76826;SDS011;65788;52.284;20.890;2023-07-13T13:10:17;8.60;;;4.30;;
76826;SDS011;65788;52.284;20.890;2023-07-13T13:12:44;7.70;;;4.30;;
76826;SDS011;65788;52.284;20.890;2023-07-13T13:15:11;9.20;;;4.60;;
76826;SDS011;65788;52.284;20.890;2023-07-13T13:17:38;5.70;;;4.30;;
76826;SDS011;65788;52.284;20.890;2023-07-13T13:20:16;7.00;;;4.60;;
76826;SDS011;65788;52.284;20.890;2023-07-13T13:22:47;9.10;;;4.70;;
76826;SDS011;65788;52.284;20.890;2023-07-13T13:25:14;7.20;;;4.00;;
76826;SDS011;65788;52.284;20.890;2023-07-13T13:27:42;7.60;;;4.60;;
76826;SDS011;65788;52.284;20.890;2023-07-13T13:30:14;6.90;;;4.50;;
76826;SDS011;65788;52.284;20.890;2023-07-13T13:32:44;9.00;;;5.20;;
76826;SDS011;65788;52.284;20.890;2023-07-13T13:35:16;6.20;;;4.30;;
76826;SDS011;65788;52.284;20.890;2023-07-13T13:37:45;8.80;;;5.00;;
76826;SDS011;65788;52.284;20.890;2023-07-13T13:40:15;6.70;;;4.00;;
76826;SDS011;65788;52.284;20.890;2023-07-13T13:42:44;6.90;;;4.10;;
76826;SDS011;65788;52.284;20.890;2023-07-13T13:45:11;6.90;;;4.30;;
76826;SDS011;65788;52.284;20.890;2023-07-13T13:47:39;7.10;;;4.90;;
76826;SDS011;65788;52.284;20.890;2023-07-13T13:50:11;6.60;;;5.10;;
76826;SDS011;65788;52.284;20.890;2023-07-13T13:52:43;7.10;;;4.30;;
76826;SDS011;65788;52.284;20.890;2023-07-13T13:55:14;6.30;;;4.90;;
76826;SDS011;65788;52.284;20.890;2023-07-13T13:57:42;6.80;;;4.40;;
76826;SDS011;65788;52.284;20.890;2023-07-13T14:00:09;5.60;;;4.30;;
76826;SDS011;65788;52.284;20.890;2023-07-13T14:02:42;7.00;;;4.70;;
76826;SDS011;65788;52.284;20.890;2023-07-13T14:05:14;6.60;;;4.80;;
76826;SDS011;65788;52.284;20.890;2023-07-13T14:07:45;7.40;;;4.60;;
76826;SDS011;65788;52.284;20.890;2023-07-13T14:10:14;9.00;;;5.20;;
76826;SDS011;65788;52.284;20.890;2023-07-13T14:12:43;6.60;;;4.10;;
76826;SDS011;65788;52.284;20.890;2023-07-13T14:15:17;7.70;;;5.00;;
76826;SDS011;65788;52.284;20.890;2023-07-13T14:17:47;6.80;;;4.70;;
76826;SDS011;65788;52.284;20.890;2023-07-13T14:20:18;6.70;;;4.80;;
76826;SDS011;65788;52.284;20.890;2023-07-13T14:22:47;7.10;;;4.80;;
76826;SDS011;65788;52.284;20.890;2023-07-13T14:25:15;7.80;;;5.00;;
76826;SDS011;65788;52.284;20.890;2023-07-13T14:27:44;6.30;;;4.60;;
76826;SDS011;65788;52.284;20.890;2023-07-13T14:32:41;9.70;;;4.40;;
76826;SDS011;65788;52.284;20.890;2023-07-13T14:35:11;7.80;;;5.30;;
76826;SDS011;65788;52.284;20.890;2023-07-13T14:37:40;9.40;;;5.30;;
76826;SDS011;65788;52.284;20.890;2023-07-13T14:40:15;8.40;;;4.90;;
76826;SDS011;65788;52.284;20.890;2023-07-13T14:42:43;9.10;;;5.20;;
76826;SDS011;65788;52.284;20.890;2023-07-13T14:45:14;8.70;;;4.80;;
76826;SDS011;65788;52.284;20.890;2023-07-13T14:47:42;7.00;;;5.00;;
76826;SDS011;65788;52.284;20.890;2023-07-13T14:50:19;7.40;;;4.90;;
76826;SDS011;65788;52.284;20.890;2023-07-13T14:52:47;9.30;;;6.00;;
76826;SDS011;65788;52.284;20.890;2023-07-13T14:55:16;10.50;;;6.90;;
76826;SDS011;65788;52.284;20.890;2023-07-13T14:57:45;7.70;;;6.10;;
76826;SDS011;65788;52.284;20.890;2023-07-13T15:02:40;7.40;;;5.10;;
76826;SDS011;65788;52.284;20.890;2023-07-13T15:05:14;10.50;;;5.60;;
76826;SDS011;65788;52.284;20.890;2023-07-13T15:07:42;8.00;;;5.40;;
76826;SDS011;65788;52.284;20.890;2023-07-13T15:10:14;9.10;;;5.70;;
76826;SDS011;65788;52.284;20.890;2023-07-13T15:12:41;10.50;;;5.00;;
76826;SDS011;65788;52.284;20.890;2023-07-13T15:15:08;9.20;;;5.20;;
76826;SDS011;65788;52.284;20.890;2023-07-13T15:17:36;9.30;;;5.10;;
76826;SDS011;65788;52.284;20.890;2023-07-13T15:20:18;7.60;;;5.30;;
76826;SDS011;65788;52.284;20.890;2023-07-13T15:22:46;8.40;;;5.20;;
76826;SDS011;65788;52.284;20.890;2023-07-13T15:25:17;7.90;;;4.70;;
76826;SDS011;65788;52.284;20.890;2023-07-13T15:27:47;9.20;;;5.20;;
76826;SDS011;65788;52.284;20.890;2023-07-13T15:30:14;8.60;;;5.10;;
76826;SDS011;65788;52.284;20.890;2023-07-13T15:32:42;8.00;;;5.20;;
76826;SDS011;65788;52.284;20.890;2023-07-13T15:37:41;11.80;;;5.70;;
76826;SDS011;65788;52.284;20.890;2023-07-13T15:40:09;8.10;;;5.60;;
76826;SDS011;65788;52.284;20.890;2023-07-13T15:42:38;11.30;;;5.60;;